sensor_id;sensor_type;location;lat;lon;timestamp;P1;durP1;ratioP1;P2;durP2;ratioP2
73951;SDS011;62304;47.662;18.324;2023-12-20T00:00:34;47.25;;;17.17;;
73951;SDS011;62304;47.662;18.324;2023-12-20T00:03:37;65.28;;;18.12;;
73951;SDS011;62304;47.662;18.324;2023-12-20T00:06:44;62.75;;;17.45;;
73951;SDS011;62304;47.662;18.324;2023-12-20T00:09:48;61.40;;;17.90;;
73951;SDS011;62304;47.662;18.324;2023-12-20T00:12:51;55.40;;;16.87;;
73951;SDS011;62304;47.662;18.324;2023-12-20T00:15:54;38.30;;;16.20;;
73951;SDS011;62304;47.662;18.324;2023-12-20T00:18:58;46.65;;;15.75;;
73951;SDS011;62304;47.662;18.324;2023-12-20T00:22:01;49.70;;;16.90;;
73951;SDS011;62304;47.662;18.324;2023-12-20T00:25:05;38.80;;;16.53;;
73951;SDS011;62304;47.662;18.324;2023-12-20T00:28:08;35.58;;;15.40;;
73951;SDS011;62304;47.662;18.324;2023-12-20T00:31:12;35.58;;;16.02;;
73951;SDS011;62304;47.662;18.324;2023-12-20T00:34:15;37.08;;;15.50;;
73951;SDS011;62304;47.662;18.324;2023-12-20T00:37:18;42.15;;;17.05;;
73951;SDS011;62304;47.662;18.324;2023-12-20T00:40:21;41.10;;;16.85;;
73951;SDS011;62304;47.662;18.324;2023-12-20T00:43:25;37.30;;;15.98;;
73951;SDS011;62304;47.662;18.324;2023-12-20T00:46:28;39.57;;;16.47;;
73951;SDS011;62304;47.662;18.324;2023-12-20T00:49:31;40.30;;;16.12;;
73951;SDS011;62304;47.662;18.324;2023-12-20T00:52:35;38.90;;;16.52;;
73951;SDS011;62304;47.662;18.324;2023-12-20T00:55:37;42.45;;;16.25;;
73951;SDS011;62304;47.662;18.324;2023-12-20T00:58:41;42.93;;;17.43;;
73951;SDS011;62304;47.662;18.324;2023-12-20T01:01:44;37.75;;;16.60;;
73951;SDS011;62304;47.662;18.324;2023-12-20T01:04:47;40.80;;;17.40;;
73951;SDS011;62304;47.662;18.324;2023-12-20T01:07:50;37.10;;;15.93;;
73951;SDS011;62304;47.662;18.324;2023-12-20T01:10:54;39.00;;;17.30;;
73951;SDS011;62304;47.662;18.324;2023-12-20T01:13:56;37.70;;;16.23;;
73951;SDS011;62304;47.662;18.324;2023-12-20T01:17:00;37.53;;;15.85;;
73951;SDS011;62304;47.662;18.324;2023-12-20T01:20:04;41.70;;;17.03;;
73951;SDS011;62304;47.662;18.324;2023-12-20T01:23:08;36.42;;;16.73;;
73951;SDS011;62304;47.662;18.324;2023-12-20T01:26:11;38.72;;;15.57;;
73951;SDS011;62304;47.662;18.324;2023-12-20T01:29:14;45.20;;;17.15;;
73951;SDS011;62304;47.662;18.324;2023-12-20T01:32:18;44.20;;;16.13;;
73951;SDS011;62304;47.662;18.324;2023-12-20T01:35:21;37.40;;;14.35;;
73951;SDS011;62304;47.662;18.324;2023-12-20T01:38:24;43.28;;;16.00;;
73951;SDS011;62304;47.662;18.324;2023-12-20T01:41:29;41.60;;;15.20;;
73951;SDS011;62304;47.662;18.324;2023-12-20T01:44:32;50.67;;;16.02;;
73951;SDS011;62304;47.662;18.324;2023-12-20T01:47:35;41.97;;;17.37;;
73951;SDS011;62304;47.662;18.324;2023-12-20T01:50:39;43.00;;;17.08;;
73951;SDS011;62304;47.662;18.324;2023-12-20T01:53:43;44.37;;;17.13;;
73951;SDS011;62304;47.662;18.324;2023-12-20T01:56:46;41.08;;;17.67;;
73951;SDS011;62304;47.662;18.324;2023-12-20T01:59:51;46.92;;;17.17;;
73951;SDS011;62304;47.662;18.324;2023-12-20T02:02:54;45.60;;;16.65;;
73951;SDS011;62304;47.662;18.324;2023-12-20T02:05:58;41.47;;;17.73;;
73951;SDS011;62304;47.662;18.324;2023-12-20T02:09:01;45.35;;;17.55;;
73951;SDS011;62304;47.662;18.324;2023-12-20T02:12:05;42.08;;;17.60;;
73951;SDS011;62304;47.662;18.324;2023-12-20T02:15:08;40.87;;;16.03;;
73951;SDS011;62304;47.662;18.324;2023-12-20T02:18:12;45.00;;;16.00;;
73951;SDS011;62304;47.662;18.324;2023-12-20T02:21:24;42.95;;;17.40;;
73951;SDS011;62304;47.662;18.324;2023-12-20T02:24:28;49.72;;;17.60;;
73951;SDS011;62304;47.662;18.324;2023-12-20T02:27:31;46.47;;;13.20;;
73951;SDS011;62304;47.662;18.324;2023-12-20T02:30:34;40.90;;;14.00;;
73951;SDS011;62304;47.662;18.324;2023-12-20T02:33:38;40.28;;;15.55;;
73951;SDS011;62304;47.662;18.324;2023-12-20T02:36:42;49.53;;;16.80;;
73951;SDS011;62304;47.662;18.324;2023-12-20T02:39:45;50.28;;;14.75;;
73951;SDS011;62304;47.662;18.324;2023-12-20T02:42:48;47.80;;;14.87;;
73951;SDS011;62304;47.662;18.324;2023-12-20T02:45:51;46.37;;;13.65;;
73951;SDS011;62304;47.662;18.324;2023-12-20T02:48:54;46.30;;;14.13;;
73951;SDS011;62304;47.662;18.324;2023-12-20T02:51:58;38.85;;;15.07;;
73951;SDS011;62304;47.662;18.324;2023-12-20T02:55:01;62.42;;;15.30;;
73951;SDS011;62304;47.662;18.324;2023-12-20T02:58:04;38.77;;;13.93;;
73951;SDS011;62304;47.662;18.324;2023-12-20T03:01:07;37.90;;;13.48;;
73951;SDS011;62304;47.662;18.324;2023-12-20T03:04:11;49.95;;;13.02;;
73951;SDS011;62304;47.662;18.324;2023-12-20T03:07:14;40.10;;;11.80;;
73951;SDS011;62304;47.662;18.324;2023-12-20T03:10:18;41.88;;;12.00;;
73951;SDS011;62304;47.662;18.324;2023-12-20T03:13:28;70.97;;;14.02;;
73951;SDS011;62304;47.662;18.324;2023-12-20T03:16:31;41.75;;;12.32;;
73951;SDS011;62304;47.662;18.324;2023-12-20T03:19:38;51.70;;;13.83;;
73951;SDS011;62304;47.662;18.324;2023-12-20T03:22:41;50.55;;;12.73;;
73951;SDS011;62304;47.662;18.324;2023-12-20T03:25:44;39.25;;;11.63;;
73951;SDS011;62304;47.662;18.324;2023-12-20T03:28:47;35.85;;;12.77;;
73951;SDS011;62304;47.662;18.324;2023-12-20T03:31:51;47.17;;;14.17;;
73951;SDS011;62304;47.662;18.324;2023-12-20T03:34:55;46.58;;;15.43;;
73951;SDS011;62304;47.662;18.324;2023-12-20T03:37:58;51.30;;;15.55;;
73951;SDS011;62304;47.662;18.324;2023-12-20T03:41:04;48.00;;;14.05;;
73951;SDS011;62304;47.662;18.324;2023-12-20T03:44:07;34.80;;;10.77;;
73951;SDS011;62304;47.662;18.324;2023-12-20T03:47:10;33.97;;;10.32;;
73951;SDS011;62304;47.662;18.324;2023-12-20T03:50:13;36.67;;;11.65;;
73951;SDS011;62304;47.662;18.324;2023-12-20T03:53:16;24.07;;;9.10;;
73951;SDS011;62304;47.662;18.324;2023-12-20T03:56:20;15.25;;;8.05;;
73951;SDS011;62304;47.662;18.324;2023-12-20T03:59:23;24.77;;;8.77;;
73951;SDS011;62304;47.662;18.324;2023-12-20T04:02:26;55.17;;;12.52;;
73951;SDS011;62304;47.662;18.324;2023-12-20T04:05:30;28.03;;;7.00;;
73951;SDS011;62304;47.662;18.324;2023-12-20T04:08:33;35.83;;;10.40;;
73951;SDS011;62304;47.662;18.324;2023-12-20T04:11:36;43.83;;;12.10;;
73951;SDS011;62304;47.662;18.324;2023-12-20T04:14:39;33.38;;;11.98;;
73951;SDS011;62304;47.662;18.324;2023-12-20T04:17:42;23.00;;;8.43;;
73951;SDS011;62304;47.662;18.324;2023-12-20T04:20:46;37.28;;;10.02;;
73951;SDS011;62304;47.662;18.324;2023-12-20T04:23:49;33.45;;;10.05;;
73951;SDS011;62304;47.662;18.324;2023-12-20T04:26:52;28.53;;;10.40;;
73951;SDS011;62304;47.662;18.324;2023-12-20T04:29:56;40.67;;;12.32;;
73951;SDS011;62304;47.662;18.324;2023-12-20T04:32:59;28.83;;;11.93;;
73951;SDS011;62304;47.662;18.324;2023-12-20T04:36:02;58.58;;;20.33;;
73951;SDS011;62304;47.662;18.324;2023-12-20T04:39:07;38.85;;;15.95;;
73951;SDS011;62304;47.662;18.324;2023-12-20T04:42:10;38.67;;;13.77;;
73951;SDS011;62304;47.662;18.324;2023-12-20T04:45:13;41.67;;;13.15;;
73951;SDS011;62304;47.662;18.324;2023-12-20T04:48:18;61.00;;;18.23;;
73951;SDS011;62304;47.662;18.324;2023-12-20T04:51:21;20.92;;;8.18;;
73951;SDS011;62304;47.662;18.324;2023-12-20T04:54:25;33.55;;;12.45;;
73951;SDS011;62304;47.662;18.324;2023-12-20T04:57:28;33.67;;;11.43;;
73951;SDS011;62304;47.662;18.324;2023-12-20T05:00:31;41.65;;;12.52;;
73951;SDS011;62304;47.662;18.324;2023-12-20T05:03:34;29.98;;;11.98;;
73951;SDS011;62304;47.662;18.324;2023-12-20T05:06:38;28.65;;;9.77;;
73951;SDS011;62304;47.662;18.324;2023-12-20T05:09:41;33.37;;;12.20;;
73951;SDS011;62304;47.662;18.324;2023-12-20T05:12:44;21.80;;;7.65;;
73951;SDS011;62304;47.662;18.324;2023-12-20T05:15:47;30.52;;;12.40;;
73951;SDS011;62304;47.662;18.324;2023-12-20T05:18:51;29.42;;;11.57;;
73951;SDS011;62304;47.662;18.324;2023-12-20T05:21:55;37.75;;;14.50;;
73951;SDS011;62304;47.662;18.324;2023-12-20T05:24:58;28.05;;;12.68;;
73951;SDS011;62304;47.662;18.324;2023-12-20T05:28:01;26.52;;;11.15;;
73951;SDS011;62304;47.662;18.324;2023-12-20T05:31:05;15.33;;;5.87;;
73951;SDS011;62304;47.662;18.324;2023-12-20T05:34:09;30.60;;;11.65;;
73951;SDS011;62304;47.662;18.324;2023-12-20T05:37:13;31.98;;;11.98;;
73951;SDS011;62304;47.662;18.324;2023-12-20T05:40:16;27.23;;;13.27;;
73951;SDS011;62304;47.662;18.324;2023-12-20T05:43:19;27.50;;;12.88;;
73951;SDS011;62304;47.662;18.324;2023-12-20T05:46:22;25.08;;;10.50;;
73951;SDS011;62304;47.662;18.324;2023-12-20T05:49:26;30.80;;;12.02;;
73951;SDS011;62304;47.662;18.324;2023-12-20T05:52:29;27.75;;;11.85;;
73951;SDS011;62304;47.662;18.324;2023-12-20T05:55:33;45.97;;;18.10;;
73951;SDS011;62304;47.662;18.324;2023-12-20T05:58:36;40.65;;;15.50;;
73951;SDS011;62304;47.662;18.324;2023-12-20T06:01:40;24.97;;;9.73;;
73951;SDS011;62304;47.662;18.324;2023-12-20T06:04:44;30.77;;;11.55;;
73951;SDS011;62304;47.662;18.324;2023-12-20T06:07:47;25.42;;;8.57;;
73951;SDS011;62304;47.662;18.324;2023-12-20T06:10:52;31.63;;;11.17;;
73951;SDS011;62304;47.662;18.324;2023-12-20T06:13:55;29.98;;;11.10;;
73951;SDS011;62304;47.662;18.324;2023-12-20T06:16:59;12.25;;;4.43;;
73951;SDS011;62304;47.662;18.324;2023-12-20T06:20:02;27.45;;;9.30;;
73951;SDS011;62304;47.662;18.324;2023-12-20T06:23:10;31.08;;;12.18;;
73951;SDS011;62304;47.662;18.324;2023-12-20T06:26:13;32.22;;;10.63;;
73951;SDS011;62304;47.662;18.324;2023-12-20T06:29:16;28.08;;;9.45;;
73951;SDS011;62304;47.662;18.324;2023-12-20T06:32:20;33.37;;;9.47;;
73951;SDS011;62304;47.662;18.324;2023-12-20T06:35:23;32.22;;;11.40;;
73951;SDS011;62304;47.662;18.324;2023-12-20T06:38:26;34.97;;;11.63;;
73951;SDS011;62304;47.662;18.324;2023-12-20T06:41:30;34.70;;;10.40;;
73951;SDS011;62304;47.662;18.324;2023-12-20T06:44:33;24.27;;;9.93;;
73951;SDS011;62304;47.662;18.324;2023-12-20T06:47:37;36.40;;;12.32;;
73951;SDS011;62304;47.662;18.324;2023-12-20T06:50:40;40.05;;;11.90;;
73951;SDS011;62304;47.662;18.324;2023-12-20T06:53:43;33.47;;;12.87;;
73951;SDS011;62304;47.662;18.324;2023-12-20T06:56:47;44.90;;;12.70;;
73951;SDS011;62304;47.662;18.324;2023-12-20T06:59:50;75.15;;;20.95;;
73951;SDS011;62304;47.662;18.324;2023-12-20T07:02:54;65.90;;;21.27;;
73951;SDS011;62304;47.662;18.324;2023-12-20T07:05:58;48.58;;;15.95;;
73951;SDS011;62304;47.662;18.324;2023-12-20T07:09:01;53.85;;;14.93;;
73951;SDS011;62304;47.662;18.324;2023-12-20T07:12:05;37.47;;;14.13;;
73951;SDS011;62304;47.662;18.324;2023-12-20T07:15:08;37.25;;;9.73;;
73951;SDS011;62304;47.662;18.324;2023-12-20T07:18:12;37.70;;;11.45;;
73951;SDS011;62304;47.662;18.324;2023-12-20T07:21:15;38.95;;;11.20;;
73951;SDS011;62304;47.662;18.324;2023-12-20T07:24:18;34.40;;;11.60;;
73951;SDS011;62304;47.662;18.324;2023-12-20T07:27:21;35.92;;;12.07;;
73951;SDS011;62304;47.662;18.324;2023-12-20T07:30:25;37.42;;;12.50;;
73951;SDS011;62304;47.662;18.324;2023-12-20T07:33:28;43.47;;;12.25;;
73951;SDS011;62304;47.662;18.324;2023-12-20T07:36:39;23.52;;;10.23;;
73951;SDS011;62304;47.662;18.324;2023-12-20T07:39:42;43.25;;;11.80;;
73951;SDS011;62304;47.662;18.324;2023-12-20T07:42:45;42.70;;;13.48;;
73951;SDS011;62304;47.662;18.324;2023-12-20T07:45:49;39.50;;;10.93;;
73951;SDS011;62304;47.662;18.324;2023-12-20T07:48:54;32.55;;;8.85;;
73951;SDS011;62304;47.662;18.324;2023-12-20T07:51:58;47.45;;;13.00;;
73951;SDS011;62304;47.662;18.324;2023-12-20T07:55:01;30.10;;;12.80;;
73951;SDS011;62304;47.662;18.324;2023-12-20T07:58:05;39.85;;;11.95;;
73951;SDS011;62304;47.662;18.324;2023-12-20T08:01:08;37.67;;;9.57;;
73951;SDS011;62304;47.662;18.324;2023-12-20T08:04:12;39.58;;;13.57;;
73951;SDS011;62304;47.662;18.324;2023-12-20T08:07:15;23.57;;;8.33;;
73951;SDS011;62304;47.662;18.324;2023-12-20T08:10:19;27.90;;;10.43;;
73951;SDS011;62304;47.662;18.324;2023-12-20T08:13:22;37.45;;;13.07;;
73951;SDS011;62304;47.662;18.324;2023-12-20T08:16:29;48.72;;;14.50;;
73951;SDS011;62304;47.662;18.324;2023-12-20T08:19:32;52.15;;;12.80;;
73951;SDS011;62304;47.662;18.324;2023-12-20T08:22:36;51.25;;;14.93;;
73951;SDS011;62304;47.662;18.324;2023-12-20T08:25:39;56.78;;;16.67;;
73951;SDS011;62304;47.662;18.324;2023-12-20T08:28:42;61.30;;;17.43;;
73951;SDS011;62304;47.662;18.324;2023-12-20T08:31:45;78.05;;;19.95;;
73951;SDS011;62304;47.662;18.324;2023-12-20T08:34:49;28.35;;;10.25;;
73951;SDS011;62304;47.662;18.324;2023-12-20T08:37:52;48.53;;;14.27;;
73951;SDS011;62304;47.662;18.324;2023-12-20T08:40:57;41.63;;;15.60;;
73951;SDS011;62304;47.662;18.324;2023-12-20T08:44:00;30.55;;;12.23;;
73951;SDS011;62304;47.662;18.324;2023-12-20T08:47:06;44.83;;;16.30;;
73951;SDS011;62304;47.662;18.324;2023-12-20T08:50:10;37.80;;;14.33;;
73951;SDS011;62304;47.662;18.324;2023-12-20T08:53:14;54.33;;;15.15;;
73951;SDS011;62304;47.662;18.324;2023-12-20T08:56:18;42.35;;;16.58;;
73951;SDS011;62304;47.662;18.324;2023-12-20T08:59:22;50.50;;;16.50;;
73951;SDS011;62304;47.662;18.324;2023-12-20T09:02:25;53.53;;;16.27;;
73951;SDS011;62304;47.662;18.324;2023-12-20T09:05:29;27.27;;;9.60;;
73951;SDS011;62304;47.662;18.324;2023-12-20T09:08:34;37.28;;;14.75;;
73951;SDS011;62304;47.662;18.324;2023-12-20T09:11:37;53.03;;;17.60;;
73951;SDS011;62304;47.662;18.324;2023-12-20T09:14:40;31.70;;;12.18;;
73951;SDS011;62304;47.662;18.324;2023-12-20T09:17:44;33.22;;;12.07;;
73951;SDS011;62304;47.662;18.324;2023-12-20T09:20:48;24.75;;;8.98;;
73951;SDS011;62304;47.662;18.324;2023-12-20T09:23:53;23.90;;;8.90;;
73951;SDS011;62304;47.662;18.324;2023-12-20T09:27:02;39.92;;;15.23;;
73951;SDS011;62304;47.662;18.324;2023-12-20T09:30:06;43.50;;;16.15;;
73951;SDS011;62304;47.662;18.324;2023-12-20T09:33:09;30.23;;;13.10;;
73951;SDS011;62304;47.662;18.324;2023-12-20T09:36:13;35.67;;;13.52;;
73951;SDS011;62304;47.662;18.324;2023-12-20T09:39:17;37.67;;;14.75;;
73951;SDS011;62304;47.662;18.324;2023-12-20T09:42:28;36.72;;;15.38;;
73951;SDS011;62304;47.662;18.324;2023-12-20T09:45:42;35.03;;;15.43;;
73951;SDS011;62304;47.662;18.324;2023-12-20T09:48:52;35.38;;;13.70;;
73951;SDS011;62304;47.662;18.324;2023-12-20T09:51:58;35.60;;;15.57;;
73951;SDS011;62304;47.662;18.324;2023-12-20T09:55:04;39.45;;;16.00;;
73951;SDS011;62304;47.662;18.324;2023-12-20T09:58:11;31.00;;;11.60;;
73951;SDS011;62304;47.662;18.324;2023-12-20T10:01:14;38.30;;;17.08;;
73951;SDS011;62304;47.662;18.324;2023-12-20T10:04:19;37.67;;;16.85;;
73951;SDS011;62304;47.662;18.324;2023-12-20T10:07:32;30.67;;;11.40;;
73951;SDS011;62304;47.662;18.324;2023-12-20T10:10:38;44.17;;;18.87;;
73951;SDS011;62304;47.662;18.324;2023-12-20T10:13:49;39.47;;;17.80;;
73951;SDS011;62304;47.662;18.324;2023-12-20T10:17:00;37.47;;;16.40;;
73951;SDS011;62304;47.662;18.324;2023-12-20T10:20:05;34.83;;;14.73;;
73951;SDS011;62304;47.662;18.324;2023-12-20T10:23:13;39.60;;;16.83;;
73951;SDS011;62304;47.662;18.324;2023-12-20T10:26:21;39.87;;;19.17;;
73951;SDS011;62304;47.662;18.324;2023-12-20T10:29:26;35.58;;;17.48;;
73951;SDS011;62304;47.662;18.324;2023-12-20T10:32:29;31.48;;;16.87;;
73951;SDS011;62304;47.662;18.324;2023-12-20T10:35:35;41.50;;;20.10;;
73951;SDS011;62304;47.662;18.324;2023-12-20T10:38:38;35.78;;;18.87;;
73951;SDS011;62304;47.662;18.324;2023-12-20T10:41:45;29.10;;;13.00;;
73951;SDS011;62304;47.662;18.324;2023-12-20T10:44:48;29.48;;;14.35;;
73951;SDS011;62304;47.662;18.324;2023-12-20T10:47:54;32.58;;;17.33;;
73951;SDS011;62304;47.662;18.324;2023-12-20T10:50:58;30.60;;;17.80;;
73951;SDS011;62304;47.662;18.324;2023-12-20T10:54:03;29.55;;;16.05;;
73951;SDS011;62304;47.662;18.324;2023-12-20T10:57:07;28.83;;;15.17;;
73951;SDS011;62304;47.662;18.324;2023-12-20T11:00:11;30.83;;;15.50;;
73951;SDS011;62304;47.662;18.324;2023-12-20T11:03:17;27.00;;;13.48;;
73951;SDS011;62304;47.662;18.324;2023-12-20T11:06:26;28.02;;;14.45;;
73951;SDS011;62304;47.662;18.324;2023-12-20T11:09:40;31.17;;;15.90;;
73951;SDS011;62304;47.662;18.324;2023-12-20T11:16:02;28.67;;;14.93;;
73951;SDS011;62304;47.662;18.324;2023-12-20T11:19:06;33.78;;;16.55;;
73951;SDS011;62304;47.662;18.324;2023-12-20T11:22:10;34.20;;;18.15;;
73951;SDS011;62304;47.662;18.324;2023-12-20T11:25:13;32.33;;;16.50;;
73951;SDS011;62304;47.662;18.324;2023-12-20T11:28:20;36.97;;;16.80;;
73951;SDS011;62304;47.662;18.324;2023-12-20T11:31:24;36.33;;;18.35;;
73951;SDS011;62304;47.662;18.324;2023-12-20T11:34:31;37.88;;;18.45;;
73951;SDS011;62304;47.662;18.324;2023-12-20T11:37:36;37.28;;;18.65;;
73951;SDS011;62304;47.662;18.324;2023-12-20T11:40:49;34.33;;;17.73;;
73951;SDS011;62304;47.662;18.324;2023-12-20T11:43:54;35.88;;;18.40;;
73951;SDS011;62304;47.662;18.324;2023-12-20T11:46:59;43.45;;;21.37;;
73951;SDS011;62304;47.662;18.324;2023-12-20T11:50:02;40.12;;;19.25;;
73951;SDS011;62304;47.662;18.324;2023-12-20T11:53:07;42.47;;;20.85;;
73951;SDS011;62304;47.662;18.324;2023-12-20T11:56:14;40.97;;;20.40;;
73951;SDS011;62304;47.662;18.324;2023-12-20T11:59:20;44.17;;;21.12;;
73951;SDS011;62304;47.662;18.324;2023-12-20T12:02:25;47.28;;;22.45;;
73951;SDS011;62304;47.662;18.324;2023-12-20T12:05:30;46.92;;;22.25;;
73951;SDS011;62304;47.662;18.324;2023-12-20T12:08:35;47.95;;;24.92;;
73951;SDS011;62304;47.662;18.324;2023-12-20T12:11:39;51.33;;;24.07;;
73951;SDS011;62304;47.662;18.324;2023-12-20T12:14:42;43.65;;;21.98;;
73951;SDS011;62304;47.662;18.324;2023-12-20T12:17:54;42.45;;;21.42;;
73951;SDS011;62304;47.662;18.324;2023-12-20T12:21:01;42.53;;;21.17;;
73951;SDS011;62304;47.662;18.324;2023-12-20T12:24:14;42.75;;;21.50;;
73951;SDS011;62304;47.662;18.324;2023-12-20T12:27:17;38.87;;;21.03;;
73951;SDS011;62304;47.662;18.324;2023-12-20T12:30:20;36.72;;;20.45;;
73951;SDS011;62304;47.662;18.324;2023-12-20T12:33:24;30.85;;;17.35;;
73951;SDS011;62304;47.662;18.324;2023-12-20T12:36:29;34.45;;;17.45;;
73951;SDS011;62304;47.662;18.324;2023-12-20T12:39:33;33.45;;;17.45;;
73951;SDS011;62304;47.662;18.324;2023-12-20T12:42:37;30.17;;;15.50;;
73951;SDS011;62304;47.662;18.324;2023-12-20T12:45:40;27.42;;;13.65;;
73951;SDS011;62304;47.662;18.324;2023-12-20T12:48:44;29.73;;;15.23;;
73951;SDS011;62304;47.662;18.324;2023-12-20T12:51:48;32.17;;;14.75;;
73951;SDS011;62304;47.662;18.324;2023-12-20T12:54:52;30.65;;;15.65;;
73951;SDS011;62304;47.662;18.324;2023-12-20T12:57:55;29.67;;;15.17;;
73951;SDS011;62304;47.662;18.324;2023-12-20T13:00:59;24.35;;;12.32;;
73951;SDS011;62304;47.662;18.324;2023-12-20T13:04:03;26.20;;;13.07;;
73951;SDS011;62304;47.662;18.324;2023-12-20T13:07:10;23.33;;;11.25;;
73951;SDS011;62304;47.662;18.324;2023-12-20T13:10:14;29.60;;;13.45;;
73951;SDS011;62304;47.662;18.324;2023-12-20T13:13:20;23.87;;;11.43;;
73951;SDS011;62304;47.662;18.324;2023-12-20T13:16:23;19.67;;;10.10;;
73951;SDS011;62304;47.662;18.324;2023-12-20T13:19:27;24.23;;;10.35;;
73951;SDS011;62304;47.662;18.324;2023-12-20T13:22:31;24.35;;;11.48;;
73951;SDS011;62304;47.662;18.324;2023-12-20T13:25:35;21.55;;;10.82;;
73951;SDS011;62304;47.662;18.324;2023-12-20T13:28:38;22.60;;;10.60;;
73951;SDS011;62304;47.662;18.324;2023-12-20T13:31:41;21.73;;;10.27;;
73951;SDS011;62304;47.662;18.324;2023-12-20T13:34:45;21.70;;;9.93;;
73951;SDS011;62304;47.662;18.324;2023-12-20T13:37:49;20.40;;;10.15;;
73951;SDS011;62304;47.662;18.324;2023-12-20T13:40:52;22.30;;;10.75;;
73951;SDS011;62304;47.662;18.324;2023-12-20T13:43:55;21.33;;;10.33;;
73951;SDS011;62304;47.662;18.324;2023-12-20T13:46:58;21.58;;;10.52;;
73951;SDS011;62304;47.662;18.324;2023-12-20T13:50:02;20.48;;;9.73;;
73951;SDS011;62304;47.662;18.324;2023-12-20T13:53:06;22.37;;;10.60;;
73951;SDS011;62304;47.662;18.324;2023-12-20T13:56:10;20.00;;;10.57;;
73951;SDS011;62304;47.662;18.324;2023-12-20T13:59:13;33.13;;;15.25;;
73951;SDS011;62304;47.662;18.324;2023-12-20T14:02:20;37.03;;;17.12;;
73951;SDS011;62304;47.662;18.324;2023-12-20T14:05:23;37.22;;;17.90;;
73951;SDS011;62304;47.662;18.324;2023-12-20T14:08:30;36.22;;;17.50;;
73951;SDS011;62304;47.662;18.324;2023-12-20T14:11:33;30.93;;;15.23;;
73951;SDS011;62304;47.662;18.324;2023-12-20T14:14:39;33.42;;;16.15;;
73951;SDS011;62304;47.662;18.324;2023-12-20T14:17:43;34.03;;;16.05;;
73951;SDS011;62304;47.662;18.324;2023-12-20T14:20:47;34.22;;;14.93;;
73951;SDS011;62304;47.662;18.324;2023-12-20T14:23:52;34.72;;;16.30;;
73951;SDS011;62304;47.662;18.324;2023-12-20T14:26:55;29.93;;;14.73;;
73951;SDS011;62304;47.662;18.324;2023-12-20T14:30:00;28.38;;;14.48;;
73951;SDS011;62304;47.662;18.324;2023-12-20T14:33:04;28.50;;;14.00;;
73951;SDS011;62304;47.662;18.324;2023-12-20T14:36:09;30.05;;;15.27;;
73951;SDS011;62304;47.662;18.324;2023-12-20T14:39:13;25.02;;;12.80;;
73951;SDS011;62304;47.662;18.324;2023-12-20T14:42:17;28.53;;;13.20;;
73951;SDS011;62304;47.662;18.324;2023-12-20T14:45:20;27.13;;;14.57;;
73951;SDS011;62304;47.662;18.324;2023-12-20T14:48:23;28.45;;;14.07;;
73951;SDS011;62304;47.662;18.324;2023-12-20T14:51:27;25.15;;;13.57;;
73951;SDS011;62304;47.662;18.324;2023-12-20T14:54:30;29.08;;;14.82;;
73951;SDS011;62304;47.662;18.324;2023-12-20T14:57:33;26.90;;;14.03;;
73951;SDS011;62304;47.662;18.324;2023-12-20T15:00:37;29.65;;;14.82;;
73951;SDS011;62304;47.662;18.324;2023-12-20T15:03:40;27.85;;;15.35;;
73951;SDS011;62304;47.662;18.324;2023-12-20T15:06:44;28.17;;;15.60;;
73951;SDS011;62304;47.662;18.324;2023-12-20T15:09:49;34.05;;;16.42;;
73951;SDS011;62304;47.662;18.324;2023-12-20T15:12:54;31.65;;;16.25;;
73951;SDS011;62304;47.662;18.324;2023-12-20T15:16:00;50.33;;;23.55;;
73951;SDS011;62304;47.662;18.324;2023-12-20T15:19:03;62.13;;;26.87;;
73951;SDS011;62304;47.662;18.324;2023-12-20T15:22:06;65.12;;;29.37;;
73951;SDS011;62304;47.662;18.324;2023-12-20T15:25:10;61.03;;;27.80;;
73951;SDS011;62304;47.662;18.324;2023-12-20T15:28:13;60.20;;;28.80;;
73951;SDS011;62304;47.662;18.324;2023-12-20T15:31:16;61.17;;;26.73;;
73951;SDS011;62304;47.662;18.324;2023-12-20T15:34:19;64.68;;;29.42;;
73951;SDS011;62304;47.662;18.324;2023-12-20T15:37:23;59.28;;;27.83;;
73951;SDS011;62304;47.662;18.324;2023-12-20T15:40:29;60.50;;;27.87;;
73951;SDS011;62304;47.662;18.324;2023-12-20T15:43:32;57.08;;;27.40;;
73951;SDS011;62304;47.662;18.324;2023-12-20T15:46:36;62.30;;;28.48;;
73951;SDS011;62304;47.662;18.324;2023-12-20T15:49:40;60.95;;;28.92;;
73951;SDS011;62304;47.662;18.324;2023-12-20T15:52:43;87.35;;;37.72;;
73951;SDS011;62304;47.662;18.324;2023-12-20T15:55:47;90.37;;;37.97;;
73951;SDS011;62304;47.662;18.324;2023-12-20T15:58:50;66.90;;;32.50;;
73951;SDS011;62304;47.662;18.324;2023-12-20T16:01:57;66.47;;;31.75;;
73951;SDS011;62304;47.662;18.324;2023-12-20T16:05:01;60.35;;;28.40;;
73951;SDS011;62304;47.662;18.324;2023-12-20T16:08:05;69.03;;;29.67;;
73951;SDS011;62304;47.662;18.324;2023-12-20T16:11:09;70.53;;;31.63;;
73951;SDS011;62304;47.662;18.324;2023-12-20T16:14:12;66.70;;;31.02;;
73951;SDS011;62304;47.662;18.324;2023-12-20T16:17:20;71.75;;;32.55;;
73951;SDS011;62304;47.662;18.324;2023-12-20T16:20:23;63.60;;;30.88;;
73951;SDS011;62304;47.662;18.324;2023-12-20T16:23:26;74.47;;;33.33;;
73951;SDS011;62304;47.662;18.324;2023-12-20T16:26:29;64.07;;;30.15;;
73951;SDS011;62304;47.662;18.324;2023-12-20T16:29:33;60.12;;;28.90;;
73951;SDS011;62304;47.662;18.324;2023-12-20T16:32:36;57.50;;;26.87;;
73951;SDS011;62304;47.662;18.324;2023-12-20T16:35:39;99.63;;;41.47;;
73951;SDS011;62304;47.662;18.324;2023-12-20T16:38:42;139.25;;;54.00;;
73951;SDS011;62304;47.662;18.324;2023-12-20T16:41:45;157.43;;;58.67;;
73951;SDS011;62304;47.662;18.324;2023-12-20T16:44:48;127.78;;;52.70;;
73951;SDS011;62304;47.662;18.324;2023-12-20T16:47:52;141.57;;;60.00;;
73951;SDS011;62304;47.662;18.324;2023-12-20T16:50:55;137.67;;;62.60;;
73951;SDS011;62304;47.662;18.324;2023-12-20T16:53:58;129.12;;;55.40;;
73951;SDS011;62304;47.662;18.324;2023-12-20T16:57:01;114.47;;;50.58;;
73951;SDS011;62304;47.662;18.324;2023-12-20T17:00:05;115.40;;;51.22;;
73951;SDS011;62304;47.662;18.324;2023-12-20T17:03:09;122.43;;;53.63;;
73951;SDS011;62304;47.662;18.324;2023-12-20T17:06:13;129.23;;;57.05;;
73951;SDS011;62304;47.662;18.324;2023-12-20T17:09:16;160.15;;;70.05;;
73951;SDS011;62304;47.662;18.324;2023-12-20T17:12:19;128.07;;;61.88;;
73951;SDS011;62304;47.662;18.324;2023-12-20T17:15:22;104.37;;;46.63;;
73951;SDS011;62304;47.662;18.324;2023-12-20T17:18:26;85.07;;;39.42;;
73951;SDS011;62304;47.662;18.324;2023-12-20T17:21:29;97.57;;;43.70;;
73951;SDS011;62304;47.662;18.324;2023-12-20T17:24:33;96.15;;;44.63;;
73951;SDS011;62304;47.662;18.324;2023-12-20T17:27:36;96.57;;;43.17;;
73951;SDS011;62304;47.662;18.324;2023-12-20T17:30:40;46.43;;;21.07;;
73951;SDS011;62304;47.662;18.324;2023-12-20T17:33:46;70.93;;;33.50;;
73951;SDS011;62304;47.662;18.324;2023-12-20T17:36:50;73.68;;;33.67;;
73951;SDS011;62304;47.662;18.324;2023-12-20T17:39:53;66.82;;;30.23;;
73951;SDS011;62304;47.662;18.324;2023-12-20T17:42:57;57.20;;;26.83;;